sensor_id;sensor_type;location;lat;lon;timestamp;pressure;altitude;pressure_sealevel;temperature;humidity
7109;BME280;29079;41.930;25.558;2023-12-20T00:02:35;100068.72;;;-0.32;100.00
7109;BME280;29079;41.930;25.558;2023-12-20T00:05:24;100063.97;;;-0.46;100.00
7109;BME280;29079;41.930;25.558;2023-12-20T00:08:12;100057.75;;;-0.44;100.00
7109;BME280;29079;41.930;25.558;2023-12-20T00:11:01;100054.75;;;-0.33;100.00
7109;BME280;29079;41.930;25.558;2023-12-20T00:13:49;100050.00;;;-0.22;100.00
7109;BME280;29079;41.930;25.558;2023-12-20T00:16:37;100047.19;;;0.07;100.00
7109;BME280;29079;41.930;25.558;2023-12-20T00:19:25;100054.16;;;0.08;100.00
7109;BME280;29079;41.930;25.558;2023-12-20T00:22:15;100053.81;;;-0.30;100.00
7109;BME280;29079;41.930;25.558;2023-12-20T00:25:04;100050.47;;;0.13;100.00
7109;BME280;29079;41.930;25.558;2023-12-20T00:27:52;100012.38;;;-0.22;100.00
7109;BME280;29079;41.930;25.558;2023-12-20T00:30:40;100047.13;;;-0.39;100.00
7109;BME280;29079;41.930;25.558;2023-12-20T00:33:28;100043.97;;;-0.25;100.00
7109;BME280;29079;41.930;25.558;2023-12-20T00:36:16;100042.94;;;-0.45;100.00
7109;BME280;29079;41.930;25.558;2023-12-20T00:39:06;100041.19;;;-0.21;100.00
7109;BME280;29079;41.930;25.558;2023-12-20T00:41:54;100039.56;;;-0.48;100.00
7109;BME280;29079;41.930;25.558;2023-12-20T00:44:42;100045.91;;;-0.56;100.00
7109;BME280;29079;41.930;25.558;2023-12-20T00:47:30;100035.88;;;-0.68;100.00
7109;BME280;29079;41.930;25.558;2023-12-20T00:50:18;100035.44;;;-0.56;100.00
7109;BME280;29079;41.930;25.558;2023-12-20T00:53:09;99973.88;;;-0.94;100.00
7109;BME280;29079;41.930;25.558;2023-12-20T00:55:58;100030.72;;;-0.46;100.00
7109;BME280;29079;41.930;25.558;2023-12-20T00:58:47;100010.59;;;-0.45;100.00
7109;BME280;29079;41.930;25.558;2023-12-20T01:01:35;99997.59;;;-0.48;100.00
7109;BME280;29079;41.930;25.558;2023-12-20T01:04:23;100005.03;;;-0.61;100.00
7109;BME280;29079;41.930;25.558;2023-12-20T01:07:11;100017.31;;;-0.62;100.00
7109;BME280;29079;41.930;25.558;2023-12-20T01:09:59;100017.31;;;-0.62;100.00
7109;BME280;29079;41.930;25.558;2023-12-20T01:12:49;100014.69;;;-0.62;100.00
7109;BME280;29079;41.930;25.558;2023-12-20T01:15:37;100007.97;;;-0.45;100.00
7109;BME280;29079;41.930;25.558;2023-12-20T01:18:25;100000.97;;;-0.45;100.00
7109;BME280;29079;41.930;25.558;2023-12-20T01:21:13;99999.78;;;-0.36;100.00
7109;BME280;29079;41.930;25.558;2023-12-20T01:24:02;100005.47;;;-0.48;100.00
7109;BME280;29079;41.930;25.558;2023-12-20T01:26:50;99986.56;;;-0.58;100.00
7109;BME280;29079;41.930;25.558;2023-12-20T01:29:39;99990.75;;;-0.53;100.00
7109;BME280;29079;41.930;25.558;2023-12-20T01:32:27;99988.75;;;-0.69;100.00
7109;BME280;29079;41.930;25.558;2023-12-20T01:35:15;99994.63;;;-0.88;100.00
7109;BME280;29079;41.930;25.558;2023-12-20T01:38:03;99989.44;;;-0.90;100.00
7109;BME280;29079;41.930;25.558;2023-12-20T01:40:51;99991.44;;;-0.98;100.00
7109;BME280;29079;41.930;25.558;2023-12-20T01:43:40;99972.03;;;-0.92;100.00
7109;BME280;29079;41.930;25.558;2023-12-20T01:46:38;99947.19;;;-1.06;100.00
7109;BME280;29079;41.930;25.558;2023-12-20T01:49:26;99980.13;;;-0.98;100.00
7109;BME280;29079;41.930;25.558;2023-12-20T01:52:15;99973.13;;;-0.73;100.00
7109;BME280;29079;41.930;25.558;2023-12-20T01:55:05;99966.66;;;-0.39;100.00
7109;BME280;29079;41.930;25.558;2023-12-20T01:58:00;99975.38;;;-0.87;100.00
7109;BME280;29079;41.930;25.558;2023-12-20T02:00:49;99933.69;;;-1.20;100.00
7109;BME280;29079;41.930;25.558;2023-12-20T02:03:39;99950.34;;;-0.96;100.00
7109;BME280;29079;41.930;25.558;2023-12-20T02:06:30;99953.00;;;-0.97;100.00
7109;BME280;29079;41.930;25.558;2023-12-20T02:09:18;99947.50;;;-0.90;100.00
7109;BME280;29079;41.930;25.558;2023-12-20T02:12:06;99842.50;;;-1.59;100.00
7109;BME280;29079;41.930;25.558;2023-12-20T02:14:54;99941.50;;;-1.18;100.00
7109;BME280;29079;41.930;25.558;2023-12-20T02:17:42;99928.63;;;-0.99;100.00
7109;BME280;29079;41.930;25.558;2023-12-20T02:20:34;99923.25;;;-0.96;100.00
7109;BME280;29079;41.930;25.558;2023-12-20T02:23:23;99927.50;;;-1.17;100.00
7109;BME280;29079;41.930;25.558;2023-12-20T02:26:12;99920.22;;;-1.09;100.00
7109;BME280;29079;41.930;25.558;2023-12-20T02:29:03;99920.31;;;-1.12;100.00
7109;BME280;29079;41.930;25.558;2023-12-20T02:31:51;99922.34;;;-0.70;100.00
7109;BME280;29079;41.930;25.558;2023-12-20T02:34:39;99913.97;;;-1.05;100.00
7109;BME280;29079;41.930;25.558;2023-12-20T02:37:27;99914.03;;;-1.07;100.00
7109;BME280;29079;41.930;25.558;2023-12-20T02:40:17;99917.81;;;-1.15;100.00
7109;BME280;29079;41.930;25.558;2023-12-20T02:43:05;99912.22;;;-1.04;100.00
7109;BME280;29079;41.930;25.558;2023-12-20T02:45:53;99902.34;;;-0.98;100.00
7109;BME280;29079;41.930;25.558;2023-12-20T02:48:41;99898.34;;;-1.08;100.00
7109;BME280;29079;41.930;25.558;2023-12-20T02:51:29;99886.66;;;-1.23;100.00
7109;BME280;29079;41.930;25.558;2023-12-20T02:54:17;99891.34;;;-1.08;100.00
7109;BME280;29079;41.930;25.558;2023-12-20T02:57:07;99888.53;;;-1.01;100.00
7109;BME280;29079;41.930;25.558;2023-12-20T02:59:55;99898.06;;;-1.00;100.00
7109;BME280;29079;41.930;25.558;2023-12-20T03:02:43;99865.94;;;-1.31;100.00
7109;BME280;29079;41.930;25.558;2023-12-20T03:05:31;99874.19;;;-1.16;100.00
7109;BME280;29079;41.930;25.558;2023-12-20T03:08:20;99871.94;;;-1.27;100.00
7109;BME280;29079;41.930;25.558;2023-12-20T03:11:08;99858.84;;;-1.27;100.00
7109;BME280;29079;41.930;25.558;2023-12-20T03:13:58;99859.53;;;-1.22;100.00
7109;BME280;29079;41.930;25.558;2023-12-20T03:16:47;99863.63;;;-1.13;100.00
7109;BME280;29079;41.930;25.558;2023-12-20T03:19:37;99856.06;;;-1.23;100.00
7109;BME280;29079;41.930;25.558;2023-12-20T03:22:26;99859.28;;;-1.14;100.00
7109;BME280;29079;41.930;25.558;2023-12-20T03:25:14;99858.69;;;-1.23;100.00
7109;BME280;29079;41.930;25.558;2023-12-20T03:28:02;99860.53;;;-1.25;100.00
7109;BME280;29079;41.930;25.558;2023-12-20T03:30:51;99833.97;;;-1.39;100.00
7109;BME280;29079;41.930;25.558;2023-12-20T03:33:40;99861.19;;;-1.19;100.00
7109;BME280;29079;41.930;25.558;2023-12-20T03:36:28;99855.44;;;-1.04;100.00
7109;BME280;29079;41.930;25.558;2023-12-20T03:39:16;99854.00;;;-1.13;100.00
7109;BME280;29079;41.930;25.558;2023-12-20T03:42:04;99847.63;;;-1.31;100.00
7109;BME280;29079;41.930;25.558;2023-12-20T03:44:52;99847.09;;;-1.15;100.00
7109;BME280;29079;41.930;25.558;2023-12-20T03:47:41;99845.72;;;-1.26;100.00
7109;BME280;29079;41.930;25.558;2023-12-20T03:50:30;99844.63;;;-1.20;100.00
7109;BME280;29079;41.930;25.558;2023-12-20T03:53:18;99818.72;;;-1.53;100.00
7109;BME280;29079;41.930;25.558;2023-12-20T03:56:06;99840.81;;;-1.35;100.00
7109;BME280;29079;41.930;25.558;2023-12-20T03:58:54;99839.41;;;-1.45;100.00
7109;BME280;29079;41.930;25.558;2023-12-20T04:01:43;99780.06;;;-1.70;100.00
7109;BME280;29079;41.930;25.558;2023-12-20T04:04:34;99834.13;;;-1.44;100.00
7109;BME280;29079;41.930;25.558;2023-12-20T04:07:22;99830.22;;;-1.32;100.00
7109;BME280;29079;41.930;25.558;2023-12-20T04:10:10;99835.75;;;-1.41;100.00
7109;BME280;29079;41.930;25.558;2023-12-20T04:12:58;99834.81;;;-1.38;100.00
7109;BME280;29079;41.930;25.558;2023-12-20T04:15:46;99835.03;;;-1.45;100.00
7109;BME280;29079;41.930;25.558;2023-12-20T04:18:36;99834.69;;;-1.35;100.00
7109;BME280;29079;41.930;25.558;2023-12-20T04:21:26;99837.38;;;-1.37;100.00
7109;BME280;29079;41.930;25.558;2023-12-20T04:24:14;99843.41;;;-1.35;100.00
7109;BME280;29079;41.930;25.558;2023-12-20T04:27:02;99843.88;;;-1.49;100.00
7109;BME280;29079;41.930;25.558;2023-12-20T04:29:50;99830.06;;;-1.52;100.00
7109;BME280;29079;41.930;25.558;2023-12-20T04:32:39;99832.41;;;-1.45;100.00
7109;BME280;29079;41.930;25.558;2023-12-20T04:35:27;99843.41;;;-1.35;100.00
7109;BME280;29079;41.930;25.558;2023-12-20T04:38:17;99815.41;;;-1.58;100.00
7109;BME280;29079;41.930;25.558;2023-12-20T04:41:05;99822.22;;;-1.52;100.00
7109;BME280;29079;41.930;25.558;2023-12-20T04:43:53;99834.25;;;-1.48;100.00
7109;BME280;29079;41.930;25.558;2023-12-20T04:46:41;99833.03;;;-1.38;100.00
7109;BME280;29079;41.930;25.558;2023-12-20T04:49:29;99816.97;;;-1.52;100.00
7109;BME280;29079;41.930;25.558;2023-12-20T04:52:18;99823.22;;;-1.56;100.00
7109;BME280;29079;41.930;25.558;2023-12-20T04:55:08;99819.47;;;-1.49;100.00
7109;BME280;29079;41.930;25.558;2023-12-20T04:57:56;99820.16;;;-1.44;100.00
7109;BME280;29079;41.930;25.558;2023-12-20T05:00:44;99804.63;;;-1.49;100.00
7109;BME280;29079;41.930;25.558;2023-12-20T05:03:32;99802.03;;;-1.25;100.00
7109;BME280;29079;41.930;25.558;2023-12-20T05:06:21;99802.47;;;-1.37;100.00
7109;BME280;29079;41.930;25.558;2023-12-20T05:09:09;99798.25;;;-1.42;100.00
7109;BME280;29079;41.930;25.558;2023-12-20T05:11:59;99794.34;;;-1.30;100.00
7109;BME280;29079;41.930;25.558;2023-12-20T05:14:47;99801.59;;;-1.38;100.00
7109;BME280;29079;41.930;25.558;2023-12-20T05:17:35;99690.81;;;-2.13;100.00
7109;BME280;29079;41.930;25.558;2023-12-20T05:20:23;99799.16;;;-1.43;100.00
7109;BME280;29079;41.930;25.558;2023-12-20T05:23:11;99797.03;;;-1.56;100.00
7109;BME280;29079;41.930;25.558;2023-12-20T05:25:59;99808.84;;;-1.45;100.00
7109;BME280;29079;41.930;25.558;2023-12-20T05:28:49;99809.16;;;-1.29;100.00
7109;BME280;29079;41.930;25.558;2023-12-20T05:31:37;99805.06;;;-1.12;100.00
7109;BME280;29079;41.930;25.558;2023-12-20T05:34:26;99773.91;;;-1.69;100.00
7109;BME280;29079;41.930;25.558;2023-12-20T05:37:14;99768.66;;;-1.69;100.00
7109;BME280;29079;41.930;25.558;2023-12-20T05:40:03;99790.38;;;-1.16;100.00
7109;BME280;29079;41.930;25.558;2023-12-20T05:42:51;99787.44;;;-1.32;100.00
7109;BME280;29079;41.930;25.558;2023-12-20T05:45:44;99777.34;;;-1.67;100.00
7109;BME280;29079;41.930;25.558;2023-12-20T05:48:32;99780.63;;;-1.62;100.00
7109;BME280;29079;41.930;25.558;2023-12-20T05:51:21;99559.94;;;-2.85;100.00
7109;BME280;29079;41.930;25.558;2023-12-20T05:54:09;99746.03;;;-1.70;100.00
7109;BME280;29079;41.930;25.558;2023-12-20T05:56:58;99767.25;;;-1.52;100.00
7109;BME280;29079;41.930;25.558;2023-12-20T05:59:47;99767.28;;;-1.54;100.00
7109;BME280;29079;41.930;25.558;2023-12-20T06:02:37;99767.19;;;-1.51;100.00
7109;BME280;29079;41.930;25.558;2023-12-20T06:05:25;99769.84;;;-1.52;100.00
7109;BME280;29079;41.930;25.558;2023-12-20T06:08:13;99777.59;;;-1.49;100.00
7109;BME280;29079;41.930;25.558;2023-12-20T06:11:05;99766.97;;;-1.45;100.00
7109;BME280;29079;41.930;25.558;2023-12-20T06:13:53;99760.88;;;-1.45;100.00
7109;BME280;29079;41.930;25.558;2023-12-20T06:16:48;99758.03;;;-1.39;100.00
7109;BME280;29079;41.930;25.558;2023-12-20T06:19:37;99545.31;;;-2.64;100.00
7109;BME280;29079;41.930;25.558;2023-12-20T06:22:26;99766.72;;;-1.38;100.00
7109;BME280;29079;41.930;25.558;2023-12-20T06:25:14;99766.13;;;-0.98;100.00
7109;BME280;29079;41.930;25.558;2023-12-20T06:28:03;99557.41;;;-2.62;100.00
7109;BME280;29079;41.930;25.558;2023-12-20T06:30:51;99763.16;;;-1.36;100.00
7109;BME280;29079;41.930;25.558;2023-12-20T06:33:42;99769.06;;;-1.31;100.00
7109;BME280;29079;41.930;25.558;2023-12-20T06:36:32;99764.22;;;-1.42;100.00
7109;BME280;29079;41.930;25.558;2023-12-20T06:39:20;99553.31;;;-2.43;100.00
7109;BME280;29079;41.930;25.558;2023-12-20T06:42:08;99764.69;;;-1.30;100.00
7109;BME280;29079;41.930;25.558;2023-12-20T06:44:56;99768.88;;;-1.01;100.00
7109;BME280;29079;41.930;25.558;2023-12-20T06:47:45;99762.25;;;-1.35;100.00
7109;BME280;29079;41.930;25.558;2023-12-20T06:50:33;99780.88;;;-1.19;100.00
7109;BME280;29079;41.930;25.558;2023-12-20T06:53:24;99769.22;;;-1.10;100.00
7109;BME280;29079;41.930;25.558;2023-12-20T06:56:13;99758.84;;;-0.67;100.00
7109;BME280;29079;41.930;25.558;2023-12-20T06:59:04;99769.84;;;-0.80;100.00
7109;BME280;29079;41.930;25.558;2023-12-20T07:01:53;99733.03;;;-1.24;100.00
7109;BME280;29079;41.930;25.558;2023-12-20T07:04:41;99665.41;;;-1.13;100.00
7109;BME280;29079;41.930;25.558;2023-12-20T07:07:30;99757.06;;;-0.89;100.00
7109;BME280;29079;41.930;25.558;2023-12-20T07:10:20;99753.63;;;-0.67;100.00
7109;BME280;29079;41.930;25.558;2023-12-20T07:13:08;99742.75;;;-0.14;100.00
7109;BME280;29079;41.930;25.558;2023-12-20T07:18:38;99715.28;;;-0.05;100.00
7109;BME280;29079;41.930;25.558;2023-12-20T07:21:26;99681.44;;;-0.32;100.00
7109;BME280;29079;41.930;25.558;2023-12-20T07:24:14;99712.00;;;0.10;100.00
7109;BME280;29079;41.930;25.558;2023-12-20T07:27:04;99722.41;;;-0.09;100.00
7109;BME280;29079;41.930;25.558;2023-12-20T07:29:52;99724.59;;;-0.41;100.00
7109;BME280;29079;41.930;25.558;2023-12-20T07:32:40;99712.19;;;-0.58;100.00
7109;BME280;29079;41.930;25.558;2023-12-20T07:35:28;99704.09;;;-0.31;100.00
7109;BME280;29079;41.930;25.558;2023-12-20T07:38:17;99703.06;;;-0.06;100.00
7109;BME280;29079;41.930;25.558;2023-12-20T07:41:05;99715.75;;;0.05;100.00
7109;BME280;29079;41.930;25.558;2023-12-20T07:43:54;99693.81;;;0.06;100.00
7109;BME280;29079;41.930;25.558;2023-12-20T07:46:43;99699.50;;;0.36;100.00
7109;BME280;29079;41.930;25.558;2023-12-20T07:49:31;99708.72;;;0.26;100.00
7109;BME280;29079;41.930;25.558;2023-12-20T07:52:19;99708.75;;;0.45;100.00
7109;BME280;29079;41.930;25.558;2023-12-20T07:55:08;99706.66;;;0.53;100.00
7109;BME280;29079;41.930;25.558;2023-12-20T07:57:57;99673.13;;;0.39;100.00
7109;BME280;29079;41.930;25.558;2023-12-20T08:00:47;99676.09;;;0.90;100.00
7109;BME280;29079;41.930;25.558;2023-12-20T08:03:35;99679.72;;;0.88;100.00
7109;BME280;29079;41.930;25.558;2023-12-20T08:06:24;99693.19;;;0.80;100.00
7109;BME280;29079;41.930;25.558;2023-12-20T08:09:12;99693.63;;;0.90;100.00
7109;BME280;29079;41.930;25.558;2023-12-20T08:12:00;99671.75;;;0.89;100.00
7109;BME280;29079;41.930;25.558;2023-12-20T08:14:48;99665.25;;;1.15;100.00
7109;BME280;29079;41.930;25.558;2023-12-20T08:17:38;99643.44;;;1.13;100.00
7109;BME280;29079;41.930;25.558;2023-12-20T08:20:26;99684.41;;;1.36;100.00
7109;BME280;29079;41.930;25.558;2023-12-20T08:23:25;99694.03;;;1.55;100.00
7109;BME280;29079;41.930;25.558;2023-12-20T08:26:19;99682.03;;;1.67;100.00
7109;BME280;29079;41.930;25.558;2023-12-20T08:29:08;99684.75;;;1.65;100.00
7109;BME280;29079;41.930;25.558;2023-12-20T08:31:57;99667.72;;;1.90;100.00
7109;BME280;29079;41.930;25.558;2023-12-20T08:34:47;99646.75;;;1.53;100.00
7109;BME280;29079;41.930;25.558;2023-12-20T08:37:35;99637.72;;;1.77;100.00
7109;BME280;29079;41.930;25.558;2023-12-20T08:40:23;99663.63;;;2.02;100.00
7109;BME280;29079;41.930;25.558;2023-12-20T08:43:12;99583.19;;;1.63;100.00
7109;BME280;29079;41.930;25.558;2023-12-20T08:46:01;99614.72;;;1.98;100.00
7109;BME280;29079;41.930;25.558;2023-12-20T08:48:52;99638.91;;;2.22;100.00
7109;BME280;29079;41.930;25.558;2023-12-20T08:51:41;99631.53;;;2.29;100.00
7109;BME280;29079;41.930;25.558;2023-12-20T08:54:30;99601.47;;;1.99;100.00
7109;BME280;29079;41.930;25.558;2023-12-20T08:57:19;99620.94;;;2.46;100.00
7109;BME280;29079;41.930;25.558;2023-12-20T09:00:10;99621.47;;;2.53;100.00
7109;BME280;29079;41.930;25.558;2023-12-20T09:02:59;99589.34;;;2.46;100.00
7109;BME280;29079;41.930;25.558;2023-12-20T09:05:47;99618.34;;;2.78;100.00
7109;BME280;29079;41.930;25.558;2023-12-20T09:08:37;99600.41;;;2.85;100.00
7109;BME280;29079;41.930;25.558;2023-12-20T09:11:25;99523.91;;;2.54;100.00
7109;BME280;29079;41.930;25.558;2023-12-20T09:14:14;99587.53;;;3.10;100.00
7109;BME280;29079;41.930;25.558;2023-12-20T09:17:02;99581.56;;;3.23;100.00
7109;BME280;29079;41.930;25.558;2023-12-20T09:19:51;99526.97;;;3.09;100.00
7109;BME280;29079;41.930;25.558;2023-12-20T09:22:40;99534.19;;;3.21;100.00
7109;BME280;29079;41.930;25.558;2023-12-20T09:25:31;99560.72;;;3.48;100.00
7109;BME280;29079;41.930;25.558;2023-12-20T09:28:19;99562.41;;;3.49;100.00
7109;BME280;29079;41.930;25.558;2023-12-20T09:31:08;99545.09;;;3.60;100.00
7109;BME280;29079;41.930;25.558;2023-12-20T09:33:56;99545.41;;;3.70;100.00
7109;BME280;29079;41.930;25.558;2023-12-20T09:36:44;99508.84;;;3.63;100.00
7109;BME280;29079;41.930;25.558;2023-12-20T09:39:33;99532.59;;;3.78;100.00
7109;BME280;29079;41.930;25.558;2023-12-20T09:42:25;99528.25;;;3.62;100.00
7109;BME280;29079;41.930;25.558;2023-12-20T09:45:20;99528.91;;;3.66;100.00
7109;BME280;29079;41.930;25.558;2023-12-20T09:48:10;99516.84;;;3.62;100.00
7109;BME280;29079;41.930;25.558;2023-12-20T09:50:59;99509.84;;;3.61;100.00
7109;BME280;29079;41.930;25.558;2023-12-20T09:53:47;99509.03;;;3.60;100.00
7109;BME280;29079;41.930;25.558;2023-12-20T09:56:37;99504.00;;;3.70;100.00
7109;BME280;29079;41.930;25.558;2023-12-20T09:59:27;99493.66;;;3.81;100.00
7109;BME280;29079;41.930;25.558;2023-12-20T10:02:16;99487.16;;;4.01;100.00
7109;BME280;29079;41.930;25.558;2023-12-20T10:05:16;99486.94;;;4.05;100.00
7109;BME280;29079;41.930;25.558;2023-12-20T10:08:06;99460.16;;;3.96;100.00
7109;BME280;29079;41.930;25.558;2023-12-20T10:10:54;99479.94;;;4.18;100.00
7109;BME280;29079;41.930;25.558;2023-12-20T10:13:45;99455.03;;;4.22;100.00
7109;BME280;29079;41.930;25.558;2023-12-20T10:16:37;99468.88;;;4.40;100.00
7109;BME280;29079;41.930;25.558;2023-12-20T10:19:25;99458.78;;;4.32;100.00
7109;BME280;29079;41.930;25.558;2023-12-20T10:22:14;99456.75;;;4.50;100.00
7109;BME280;29079;41.930;25.558;2023-12-20T10:25:03;99444.94;;;4.56;100.00
7109;BME280;29079;41.930;25.558;2023-12-20T10:28:10;99438.78;;;4.56;100.00
7109;BME280;29079;41.930;25.558;2023-12-20T10:30:59;99432.16;;;4.63;100.00
7109;BME280;29079;41.930;25.558;2023-12-20T10:33:49;99435.72;;;4.89;100.00
7109;BME280;29079;41.930;25.558;2023-12-20T10:36:37;99432.56;;;4.84;100.00
7109;BME280;29079;41.930;25.558;2023-12-20T10:39:25;99398.03;;;4.73;100.00
7109;BME280;29079;41.930;25.558;2023-12-20T10:42:14;99422.88;;;5.10;100.00
7109;BME280;29079;41.930;25.558;2023-12-20T10:45:04;99414.72;;;5.13;100.00
7109;BME280;29079;41.930;25.558;2023-12-20T10:47:52;99421.06;;;5.11;99.47
7109;BME280;29079;41.930;25.558;2023-12-20T10:50:42;99413.97;;;4.98;100.00
7109;BME280;29079;41.930;25.558;2023-12-20T10:53:33;99381.97;;;4.76;100.00
7109;BME280;29079;41.930;25.558;2023-12-20T10:56:23;99404.84;;;5.02;100.00
7109;BME280;29079;41.930;25.558;2023-12-20T10:59:11;99378.72;;;5.11;99.58
7109;BME280;29079;41.930;25.558;2023-12-20T11:02:02;99395.06;;;5.30;97.70
7109;BME280;29079;41.930;25.558;2023-12-20T11:04:56;99384.56;;;5.16;100.00
7109;BME280;29079;41.930;25.558;2023-12-20T11:07:51;99391.34;;;5.07;100.00
7109;BME280;29079;41.930;25.558;2023-12-20T11:10:49;99389.19;;;4.99;100.00
7109;BME280;29079;41.930;25.558;2023-12-20T11:13:44;99379.38;;;5.14;100.00
7109;BME280;29079;41.930;25.558;2023-12-20T11:16:37;99374.00;;;5.29;100.00
7109;BME280;29079;41.930;25.558;2023-12-20T11:19:38;99370.91;;;5.35;100.00
7109;BME280;29079;41.930;25.558;2023-12-20T11:22:32;99369.53;;;5.16;100.00
7109;BME280;29079;41.930;25.558;2023-12-20T11:25:28;99357.78;;;5.20;100.00
7109;BME280;29079;41.930;25.558;2023-12-20T11:28:20;99348.91;;;5.21;99.36
7109;BME280;29079;41.930;25.558;2023-12-20T11:31:14;99342.34;;;5.01;100.00
7109;BME280;29079;41.930;25.558;2023-12-20T11:34:13;99354.19;;;5.09;100.00
7109;BME280;29079;41.930;25.558;2023-12-20T11:37:03;99353.66;;;5.03;100.00
7109;BME280;29079;41.930;25.558;2023-12-20T11:39:55;99342.97;;;5.05;100.00
7109;BME280;29079;41.930;25.558;2023-12-20T11:42:51;99331.97;;;4.98;100.00
7109;BME280;29079;41.930;25.558;2023-12-20T11:45:49;99108.63;;;3.62;100.00
7109;BME280;29079;41.930;25.558;2023-12-20T11:48:39;99269.75;;;4.54;100.00
7109;BME280;29079;41.930;25.558;2023-12-20T11:51:27;99318.97;;;4.95;100.00
7109;BME280;29079;41.930;25.558;2023-12-20T11:54:15;99297.69;;;4.84;100.00
7109;BME280;29079;41.930;25.558;2023-12-20T11:57:04;99296.34;;;4.91;100.00
7109;BME280;29079;41.930;25.558;2023-12-20T11:59:54;99153.59;;;4.01;100.00
7109;BME280;29079;41.930;25.558;2023-12-20T12:02:55;99312.50;;;5.12;100.00
7109;BME280;29079;41.930;25.558;2023-12-20T12:05:43;99109.84;;;3.84;100.00
7109;BME280;29079;41.930;25.558;2023-12-20T12:08:35;99278.97;;;4.87;100.00
7109;BME280;29079;41.930;25.558;2023-12-20T12:11:24;99276.50;;;5.10;100.00
7109;BME280;29079;41.930;25.558;2023-12-20T12:14:12;99254.41;;;4.85;100.00
7109;BME280;29079;41.930;25.558;2023-12-20T12:17:03;99277.41;;;5.47;100.00
7109;BME280;29079;41.930;25.558;2023-12-20T12:20:02;99269.66;;;5.20;100.00
7109;BME280;29079;41.930;25.558;2023-12-20T12:22:58;99213.19;;;4.95;100.00
7109;BME280;29079;41.930;25.558;2023-12-20T12:25:47;99260.50;;;5.24;100.00
7109;BME280;29079;41.930;25.558;2023-12-20T12:28:35;99201.25;;;4.90;100.00
7109;BME280;29079;41.930;25.558;2023-12-20T12:31:23;99180.88;;;5.16;100.00
7109;BME280;29079;41.930;25.558;2023-12-20T12:34:16;99194.13;;;5.03;100.00
7109;BME280;29079;41.930;25.558;2023-12-20T12:37:05;99247.28;;;5.61;100.00
7109;BME280;29079;41.930;25.558;2023-12-20T12:39:54;99245.81;;;5.57;100.00
7109;BME280;29079;41.930;25.558;2023-12-20T12:42:43;99207.47;;;5.01;100.00
7109;BME280;29079;41.930;25.558;2023-12-20T12:45:31;99208.03;;;5.55;100.00
7109;BME280;29079;41.930;25.558;2023-12-20T12:48:20;99229.88;;;5.46;100.00
7109;BME280;29079;41.930;25.558;2023-12-20T12:51:11;99238.56;;;5.72;100.00
7109;BME280;29079;41.930;25.558;2023-12-20T12:54:00;99229.47;;;5.63;100.00
7109;BME280;29079;41.930;25.558;2023-12-20T12:56:48;99212.69;;;5.27;100.00
7109;BME280;29079;41.930;25.558;2023-12-20T12:59:37;99215.25;;;5.77;100.00
7109;BME280;29079;41.930;25.558;2023-12-20T13:02:26;99220.88;;;5.48;100.00
7109;BME280;29079;41.930;25.558;2023-12-20T13:05:14;99219.81;;;5.99;100.00
7109;BME280;29079;41.930;25.558;2023-12-20T13:08:06;99209.41;;;5.61;100.00
7109;BME280;29079;41.930;25.558;2023-12-20T13:10:56;99185.47;;;5.62;100.00
7109;BME280;29079;41.930;25.558;2023-12-20T13:13:47;99147.72;;;4.86;100.00
7109;BME280;29079;41.930;25.558;2023-12-20T13:16:36;99223.59;;;5.10;100.00
7109;BME280;29079;41.930;25.558;2023-12-20T13:19:24;99226.47;;;5.06;100.00
7109;BME280;29079;41.930;25.558;2023-12-20T13:22:12;99220.53;;;5.16;100.00
7109;BME280;29079;41.930;25.558;2023-12-20T13:25:02;99217.75;;;5.30;100.00
7109;BME280;29079;41.930;25.558;2023-12-20T13:27:50;99215.13;;;5.30;100.00
7109;BME280;29079;41.930;25.558;2023-12-20T13:30:38;99149.75;;;5.44;100.00
7109;BME280;29079;41.930;25.558;2023-12-20T13:33:27;99191.06;;;5.57;100.00
7109;BME280;29079;41.930;25.558;2023-12-20T13:36:15;99197.59;;;5.03;100.00
7109;BME280;29079;41.930;25.558;2023-12-20T13:39:04;99167.41;;;4.69;100.00
7109;BME280;29079;41.930;25.558;2023-12-20T13:41:54;99197.94;;;4.86;100.00
7109;BME280;29079;41.930;25.558;2023-12-20T13:44:46;99186.22;;;4.64;100.00
7109;BME280;29079;41.930;25.558;2023-12-20T13:47:35;99173.66;;;4.55;100.00
7109;BME280;29079;41.930;25.558;2023-12-20T13:50:23;99161.84;;;4.48;100.00
7109;BME280;29079;41.930;25.558;2023-12-20T13:53:11;99184.84;;;4.59;100.00
7109;BME280;29079;41.930;25.558;2023-12-20T13:55:59;99162.47;;;4.39;100.00
7109;BME280;29079;41.930;25.558;2023-12-20T13:58:49;99163.94;;;4.43;100.00
7109;BME280;29079;41.930;25.558;2023-12-20T14:01:38;99172.69;;;4.69;100.00
7109;BME280;29079;41.930;25.558;2023-12-20T14:04:26;99163.31;;;4.65;100.00
7109;BME280;29079;41.930;25.558;2023-12-20T14:07:28;99163.44;;;4.50;100.00
7109;BME280;29079;41.930;25.558;2023-12-20T14:10:17;99132.25;;;4.30;100.00
7109;BME280;29079;41.930;25.558;2023-12-20T14:13:05;99133.94;;;4.31;100.00
7109;BME280;29079;41.930;25.558;2023-12-20T14:15:55;99162.88;;;4.45;100.00
7109;BME280;29079;41.930;25.558;2023-12-20T14:18:43;99124.22;;;4.18;100.00
7109;BME280;29079;41.930;25.558;2023-12-20T14:21:31;99168.28;;;4.44;100.00
7109;BME280;29079;41.930;25.558;2023-12-20T14:24:20;99154.84;;;4.21;100.00
7109;BME280;29079;41.930;25.558;2023-12-20T14:27:08;99151.69;;;4.16;100.00
7109;BME280;29079;41.930;25.558;2023-12-20T14:29:57;99151.03;;;4.25;100.00
7109;BME280;29079;41.930;25.558;2023-12-20T14:32:46;99062.94;;;3.62;100.00
7109;BME280;29079;41.930;25.558;2023-12-20T14:35:35;99043.72;;;3.60;100.00
7109;BME280;29079;41.930;25.558;2023-12-20T14:38:23;99117.13;;;4.06;100.00
7109;BME280;29079;41.930;25.558;2023-12-20T14:41:12;99137.09;;;4.10;100.00
7109;BME280;29079;41.930;25.558;2023-12-20T14:44:01;99139.31;;;4.29;100.00
7109;BME280;29079;41.930;25.558;2023-12-20T14:46:51;99071.25;;;3.56;100.00
7109;BME280;29079;41.930;25.558;2023-12-20T14:49:41;99131.38;;;4.04;100.00
7109;BME280;29079;41.930;25.558;2023-12-20T14:52:29;98972.25;;;2.84;100.00
7109;BME280;29079;41.930;25.558;2023-12-20T14:55:18;99086.69;;;3.62;100.00